createdAt,value
2023-03-26T00:01:15.475Z,94593.91
2023-03-26T00:03:46.987Z,94598.06
2023-03-26T00:06:16.683Z,94602.53
2023-03-26T00:08:45.717Z,94596.31
2023-03-26T00:11:14.574Z,94602.53
2023-03-26T00:13:44.001Z,94600.50
2023-03-26T00:16:13.684Z,94598.91
2023-03-26T00:18:42.684Z,94590.94
2023-03-26T00:21:13.506Z,94595.97
2023-03-26T00:23:40.430Z,94583.81
2023-03-26T00:26:10.498Z,94594.63
2023-03-26T00:28:40.264Z,94585.19
2023-03-26T00:31:10.707Z,94580.84
2023-03-26T00:33:38.389Z,94582.34
2023-03-26T00:36:09.911Z,94571.81
2023-03-26T00:38:39.280Z,94579.66
2023-03-26T00:41:17.675Z,94581.97
2023-03-26T00:43:49.225Z,94582.50
2023-03-26T00:46:17.930Z,94593.00
2023-03-26T00:48:46.269Z,94586.41
2023-03-26T00:51:15.935Z,94596.22
2023-03-26T00:53:45.252Z,94591.06
2023-03-26T00:56:12.857Z,94585.19
2023-03-26T00:58:39.990Z,94589.06
2023-03-26T01:01:10.259Z,94579.78
2023-03-26T01:03:38.600Z,94592.00
2023-03-26T01:06:08.552Z,94586.22
2023-03-26T01:08:47.015Z,94577.38
2023-03-26T01:11:43.043Z,94575.72
2023-03-26T01:14:16.158Z,94571.56
2023-03-26T01:16:55.116Z,94580.06
2023-03-26T01:19:24.911Z,94577.22
2023-03-26T01:21:52.128Z,94575.69
2023-03-26T01:24:18.814Z,94569.22
2023-03-26T01:26:58.460Z,94569.78
2023-03-26T01:29:54.237Z,94557.06
2023-03-26T01:32:39.312Z,94560.72
2023-03-26T01:35:13.167Z,94554.25
2023-03-26T01:38:02.650Z,94553.72
2023-03-26T01:40:42.910Z,94561.00
2023-03-26T01:43:28.784Z,94562.47
2023-03-26T01:45:56.756Z,94545.41
2023-03-26T01:48:31.733Z,94542.38
2023-03-26T01:50:58.957Z,94537.16
2023-03-26T01:53:26.279Z,94539.28
2023-03-26T01:56:10.899Z,94541.72
2023-03-26T01:58:53.152Z,94538.63
2023-03-26T02:01:30.442Z,94530.25
2023-03-26T02:04:01.832Z,94529.88
2023-03-26T02:07:11.541Z,94528.66
2023-03-26T02:09:45.859Z,94519.09
2023-03-26T02:12:14.898Z,94511.16
2023-03-26T02:14:43.000Z,94509.41
2023-03-26T02:17:11.025Z,94504.13
2023-03-26T02:19:42.113Z,94510.75
2023-03-26T02:22:15.837Z,94503.31
2023-03-26T02:24:45.454Z,94507.78
2023-03-26T02:27:13.587Z,94506.16
2023-03-26T02:29:41.365Z,94505.22
2023-03-26T02:32:14.420Z,94502.63
2023-03-26T02:34:42.053Z,94492.41
2023-03-26T02:37:10.050Z,94490.66
2023-03-26T02:39:39.261Z,94488.34
2023-03-26T02:42:16.389Z,94490.50
2023-03-26T02:44:48.037Z,94486.47
2023-03-26T02:47:17.868Z,94479.72
2023-03-26T02:50:13.644Z,94478.91
2023-03-26T02:52:58.844Z,94476.19
2023-03-26T02:55:27.316Z,94470.94
2023-03-26T02:57:57.085Z,94466.75
2023-03-26T03:00:29.878Z,94459.34
2023-03-26T03:03:26.087Z,94450.56
2023-03-26T03:05:59.456Z,94452.59
2023-03-26T03:08:39.777Z,94441.94
2023-03-26T03:11:25.404Z,94432.63
2023-03-26T03:13:53.195Z,94426.03
2023-03-26T03:16:25.908Z,94427.91
2023-03-26T03:18:58.146Z,94427.91
2023-03-26T03:21:36.888Z,94418.31
2023-03-26T03:24:04.042Z,94411.31
2023-03-26T03:26:36.334Z,94416.31
2023-03-26T03:29:13.945Z,94420.72
2023-03-26T03:31:41.671Z,94417.09
2023-03-26T03:34:19.024Z,94407.75
2023-03-26T03:36:50.397Z,94412.66
2023-03-26T03:39:37.727Z,94409.81
2023-03-26T03:42:04.466Z,94410.63
2023-03-26T03:44:31.250Z,94408.53
2023-03-26T03:46:58.927Z,94409.88
2023-03-26T03:49:25.831Z,94408.34
2023-03-26T03:51:53.219Z,94403.75
2023-03-26T03:54:28.267Z,94401.91
2023-03-26T03:57:05.476Z,94392.88
2023-03-26T03:59:50.598Z,94380.16
2023-03-26T04:02:26.286Z,94375.44
2023-03-26T04:04:57.946Z,94365.34
2023-03-26T04:07:26.216Z,94366.00
2023-03-26T04:10:16.487Z,94367.13
2023-03-26T04:13:01.779Z,94374.47
2023-03-26T04:15:55.602Z,94371.91
2023-03-26T04:18:23.336Z,94370.16
2023-03-26T04:20:50.807Z,94364.78
2023-03-26T04:23:24.435Z,94365.78
2023-03-26T04:26:03.522Z,94363.59
2023-03-26T04:28:55.483Z,94354.28
2023-03-26T04:31:30.418Z,94345.06
2023-03-26T04:34:14.361Z,94350.88
2023-03-26T04:37:22.171Z,94348.31
2023-03-26T04:40:00.987Z,94345.94
2023-03-26T04:42:37.717Z,94333.50
2023-03-26T04:45:22.331Z,94337.78
2023-03-26T04:47:55.467Z,94342.66
2023-03-26T04:50:22.713Z,94334.06
2023-03-26T04:52:49.818Z,94337.19
2023-03-26T04:56:05.965Z,94318.84
2023-03-26T04:59:06.136Z,94318.72
2023-03-26T05:01:38.089Z,94315.34
2023-03-26T05:04:06.230Z,94316.22
2023-03-26T05:06:34.502Z,94311.34
2023-03-26T05:09:05.981Z,94318.06
2023-03-26T05:11:55.590Z,94311.75
2023-03-26T05:14:22.888Z,94308.59
2023-03-26T05:16:53.257Z,94305.38
2023-03-26T05:19:20.796Z,94301.63
2023-03-26T05:21:47.425Z,94308.75
2023-03-26T05:24:14.074Z,94302.97
2023-03-26T05:26:41.210Z,94302.81
2023-03-26T05:29:07.901Z,94300.66
2023-03-26T05:31:39.978Z,94292.97
2023-03-26T05:34:06.874Z,94285.94
2023-03-26T05:36:33.906Z,94278.25
2023-03-26T05:39:08.666Z,94273.78
2023-03-26T05:41:55.906Z,94265.31
2023-03-26T05:44:28.964Z,94264.22
2023-03-26T05:46:55.897Z,94255.72
2023-03-26T05:49:25.961Z,94251.41
2023-03-26T05:51:55.419Z,94254.63
2023-03-26T05:54:35.003Z,94261.88
2023-03-26T05:57:28.398Z,94254.19
2023-03-26T06:00:15.145Z,94243.66
2023-03-26T06:02:44.579Z,94242.53
2023-03-26T06:05:34.376Z,94252.53
2023-03-26T06:08:27.472Z,94255.47
2023-03-26T06:11:02.532Z,94249.16
2023-03-26T06:13:33.058Z,94239.84
2023-03-26T06:15:59.694Z,94245.50
2023-03-26T06:18:36.320Z,94246.69
2023-03-26T06:21:12.120Z,94244.63
2023-03-26T06:23:49.061Z,94243.97
2023-03-26T06:26:48.170Z,94249.03
2023-03-26T06:29:42.508Z,94235.75
2023-03-26T06:32:25.747Z,94233.25
2023-03-26T06:34:57.111Z,94232.81
2023-03-26T06:37:24.202Z,94234.03
2023-03-26T06:39:56.502Z,94237.97
2023-03-26T06:43:06.447Z,94233.38
2023-03-26T06:45:51.470Z,94220.19
2023-03-26T06:48:53.401Z,94217.28
2023-03-26T06:51:20.398Z,94225.03
2023-03-26T06:54:05.882Z,94221.94
2023-03-26T06:56:51.085Z,94214.97
2023-03-26T06:59:28.296Z,94206.75
2023-03-26T07:02:13.845Z,94202.56
2023-03-26T07:04:59.065Z,94193.47
2023-03-26T07:07:46.689Z,94188.34
2023-03-26T07:10:33.111Z,94175.16
2023-03-26T07:13:16.838Z,94163.03
2023-03-26T07:15:43.516Z,94158.34
2023-03-26T07:18:10.152Z,94144.88
2023-03-26T07:20:38.884Z,94127.09
2023-03-26T07:23:06.028Z,94127.09
2023-03-26T07:25:36.413Z,94118.44
2023-03-26T07:28:25.843Z,94117.50
2023-03-26T07:31:34.633Z,94121.75
2023-03-26T07:34:59.058Z,94105.41
2023-03-26T07:37:56.123Z,94097.06
2023-03-26T07:40:56.115Z,94089.09
2023-03-26T07:43:50.514Z,94079.41
2023-03-26T07:46:53.273Z,94070.22
2023-03-26T07:49:38.188Z,94072.41
2023-03-26T07:52:26.797Z,94062.84
2023-03-26T07:54:53.903Z,94057.50
2023-03-26T07:57:47.508Z,94048.66
2023-03-26T08:00:45.408Z,94043.09
2023-03-26T08:03:19.788Z,94043.03
2023-03-26T08:06:14.702Z,94047.66
2023-03-26T08:09:04.014Z,94047.00
2023-03-26T08:12:19.092Z,94054.91
2023-03-26T08:14:54.196Z,94048.38
2023-03-26T08:17:39.459Z,94060.06
2023-03-26T08:20:17.269Z,94067.00
2023-03-26T08:22:50.824Z,94066.88
2023-03-26T08:25:55.832Z,94062.19
2023-03-26T08:28:55.422Z,94068.63
2023-03-26T08:31:32.881Z,94053.78
2023-03-26T08:34:00.519Z,94056.09
2023-03-26T08:36:27.666Z,94069.41
2023-03-26T08:38:54.380Z,94064.88
2023-03-26T08:41:30.176Z,94062.59
2023-03-26T08:44:27.469Z,94055.66
2023-03-26T08:47:12.108Z,94056.97
2023-03-26T08:50:00.187Z,94046.66
2023-03-26T08:52:54.510Z,94035.94
2023-03-26T08:55:39.321Z,94035.44
2023-03-26T08:58:43.305Z,94030.16
2023-03-26T09:01:47.193Z,94027.03
2023-03-26T09:04:38.474Z,94017.72
2023-03-26T09:07:37.440Z,94022.69
2023-03-26T09:10:39.438Z,94022.97
2023-03-26T09:13:12.147Z,94011.88
2023-03-26T09:16:06.390Z,94004.53
2023-03-26T09:18:55.345Z,93998.91
2023-03-26T09:21:53.049Z,94001.78
2023-03-26T09:24:57.543Z,94006.09
2023-03-26T09:27:48.919Z,94017.16
2023-03-26T09:30:34.253Z,94021.38
2023-03-26T09:33:32.229Z,94024.81
2023-03-26T09:36:06.044Z,94026.41
2023-03-26T09:38:40.558Z,94007.94
2023-03-26T09:41:38.189Z,93993.66
2023-03-26T09:44:26.260Z,94001.91
2023-03-26T09:46:55.625Z,93988.28
2023-03-26T09:49:34.357Z,93972.44
2023-03-26T09:52:21.524Z,93997.53
2023-03-26T09:55:08.032Z,93976.72
2023-03-26T09:58:13.293Z,93977.50
2023-03-26T10:00:39.967Z,93977.44
2023-03-26T10:03:49.314Z,93963.94
2023-03-26T10:06:24.421Z,93963.38
2023-03-26T10:09:01.716Z,93977.06
2023-03-26T10:11:57.706Z,93980.72
2023-03-26T10:15:00.182Z,93988.53
2023-03-26T10:17:48.800Z,93996.97
2023-03-26T10:20:24.835Z,94008.81
2023-03-26T10:23:13.863Z,94017.09
2023-03-26T10:25:46.511Z,94020.41
2023-03-26T10:28:20.482Z,94021.22
2023-03-26T10:31:12.565Z,94005.47
2023-03-26T10:33:45.176Z,94002.72
2023-03-26T10:36:29.673Z,93994.16
2023-03-26T10:39:41.090Z,93991.75
2023-03-26T10:42:46.574Z,93973.72
2023-03-26T10:45:37.380Z,93971.72
2023-03-26T10:48:25.339Z,93969.47
2023-03-26T10:50:54.143Z,93980.00
2023-03-26T10:53:45.896Z,93962.06
2023-03-26T10:56:33.203Z,93963.47
2023-03-26T10:59:11.057Z,93962.94
2023-03-26T11:01:43.932Z,93948.22
2023-03-26T11:04:25.507Z,93974.06
2023-03-26T11:07:18.207Z,93986.97
2023-03-26T11:10:02.389Z,93994.41
2023-03-26T11:12:40.333Z,93989.09
2023-03-26T11:15:20.028Z,93977.44
2023-03-26T11:18:13.385Z,93990.78
2023-03-26T11:21:18.974Z,93975.03
2023-03-26T11:24:21.735Z,93967.34
2023-03-26T11:27:15.170Z,93974.25
2023-03-26T11:29:43.040Z,93971.19
2023-03-26T11:32:13.911Z,93977.88
2023-03-26T11:34:47.912Z,93984.81
2023-03-26T11:37:20.222Z,93971.53
2023-03-26T11:39:55.114Z,93968.28
2023-03-26T11:42:24.919Z,93985.09
2023-03-26T11:44:55.761Z,93989.06
2023-03-26T11:47:31.060Z,93995.13
2023-03-26T11:50:01.455Z,93972.53
2023-03-26T11:52:28.260Z,93957.81
2023-03-26T11:54:58.582Z,93947.34
2023-03-26T11:57:33.390Z,93931.91
2023-03-26T12:00:16.836Z,93932.81
2023-03-26T12:02:45.288Z,93936.03
2023-03-26T12:05:22.420Z,93936.88
2023-03-26T12:07:59.495Z,93939.03
2023-03-26T12:10:31.332Z,93936.78
2023-03-26T12:13:02.140Z,93937.56
2023-03-26T12:15:31.959Z,93928.53
2023-03-26T12:18:17.407Z,93929.84
2023-03-26T12:20:45.032Z,93936.75
2023-03-26T12:23:35.333Z,93929.22
2023-03-26T12:26:16.390Z,93926.00
2023-03-26T12:28:50.558Z,93919.41
2023-03-26T12:31:19.343Z,93916.84
2023-03-26T12:34:17.448Z,93918.44
2023-03-26T12:36:55.782Z,93917.81
2023-03-26T12:40:07.228Z,93920.53
2023-03-26T12:44:48.306Z,93913.78
2023-03-26T12:45:40.749Z,93905.59
2023-03-26T12:48:13.100Z,93891.75
2023-03-26T12:51:15.947Z,93891.47
2023-03-26T12:54:16.621Z,93897.38
2023-03-26T12:56:50.188Z,93884.75
2023-03-26T13:00:01.170Z,93893.56
2023-03-26T13:02:53.849Z,93891.31
2023-03-26T13:05:36.762Z,93875.59
2023-03-26T13:08:32.617Z,93870.75
2023-03-26T13:11:17.555Z,93883.44
2023-03-26T13:14:02.947Z,93881.50
2023-03-26T13:16:35.804Z,93879.72
2023-03-26T13:19:07.285Z,93876.03
2023-03-26T13:21:34.020Z,93877.59
2023-03-26T13:24:34.608Z,93882.59
2023-03-26T13:27:16.855Z,93885.97
2023-03-26T13:29:57.033Z,93892.88
2023-03-26T13:32:37.953Z,93892.69
2023-03-26T13:35:24.388Z,93882.28
2023-03-26T13:38:11.704Z,93884.88
2023-03-26T13:40:38.487Z,93887.63
2023-03-26T13:43:43.049Z,93888.91
2023-03-26T13:46:37.170Z,93881.34
2023-03-26T13:49:03.899Z,93864.44
2023-03-26T13:51:33.187Z,93860.13
2023-03-26T13:54:11.734Z,93851.13
2023-03-26T13:56:44.341Z,93856.13
2023-03-26T13:59:31.321Z,93844.66
2023-03-26T14:02:05.395Z,93851.09
2023-03-26T14:04:41.092Z,93836.81
2023-03-26T14:07:22.527Z,93828.47
2023-03-26T14:09:54.667Z,93823.13
2023-03-26T14:12:48.854Z,93831.66
2023-03-26T14:15:34.612Z,93823.19
2023-03-26T14:18:25.674Z,93814.16
2023-03-26T14:21:32.422Z,93819.25
2023-03-26T14:24:31.039Z,93800.16
2023-03-26T14:27:04.461Z,93783.59
2023-03-26T14:29:56.738Z,93780.16
2023-03-26T14:33:03.116Z,93783.91
2023-03-26T14:35:41.955Z,93777.38
2023-03-26T14:38:32.948Z,93782.63
2023-03-26T14:41:30.623Z,93780.25
2023-03-26T14:44:30.471Z,93778.66
2023-03-26T14:47:20.762Z,93778.13
2023-03-26T14:50:06.522Z,93783.28
2023-03-26T14:52:52.152Z,93785.84
2023-03-26T14:55:41.266Z,93790.34
2023-03-26T14:58:13.742Z,93781.50
2023-03-26T15:01:04.201Z,93789.06
2023-03-26T15:03:48.867Z,93788.09
2023-03-26T15:06:47.323Z,93781.03
2023-03-26T15:09:38.488Z,93782.78
2023-03-26T15:12:24.001Z,93802.25
2023-03-26T15:15:15.535Z,93815.56
2023-03-26T15:18:03.424Z,93828.91
2023-03-26T15:20:55.986Z,93776.16
2023-03-26T15:23:54.028Z,93806.91
2023-03-26T15:26:53.947Z,93829.19
2023-03-26T15:29:42.583Z,93845.03
2023-03-26T15:32:45.300Z,93855.66
2023-03-26T15:35:21.440Z,93872.59
2023-03-26T15:37:59.932Z,93862.59
2023-03-26T15:40:43.262Z,93843.81
2023-03-26T15:43:19.991Z,93834.16
2023-03-26T15:45:50.036Z,93835.41
2023-03-26T15:48:36.848Z,93841.56
2023-03-26T15:51:16.692Z,93816.22
2023-03-26T15:53:58.433Z,93799.09
2023-03-26T15:56:48.913Z,93796.56
2023-03-26T15:59:28.302Z,93788.88
2023-03-26T16:02:16.091Z,93789.97
2023-03-26T16:04:52.328Z,93786.16
2023-03-26T16:07:32.944Z,93788.88
2023-03-26T16:10:28.074Z,93789.25
2023-03-26T16:13:25.695Z,93779.19
2023-03-26T16:15:56.533Z,93776.50
2023-03-26T16:18:54.188Z,93768.31
2023-03-26T16:21:34.769Z,93767.22
2023-03-26T16:24:08.002Z,93767.81
2023-03-26T16:26:44.106Z,93769.69
2023-03-26T16:29:14.400Z,93772.66
2023-03-26T16:32:10.550Z,93763.00
2023-03-26T16:34:53.118Z,93761.72
2023-03-26T16:37:38.001Z,93766.22
2023-03-26T16:40:20.823Z,93785.69
2023-03-26T16:43:06.204Z,93780.69
2023-03-26T16:46:11.138Z,93790.22
2023-03-26T16:48:56.580Z,93784.06
2023-03-26T16:51:42.768Z,93776.31
2023-03-26T16:54:22.241Z,93768.25
2023-03-26T16:56:59.999Z,93751.59
2023-03-26T17:00:04.939Z,93764.66
2023-03-26T17:02:48.032Z,93754.41
2023-03-26T17:05:59.179Z,93759.81
2023-03-26T17:08:36.692Z,93759.38
2023-03-26T17:11:22.188Z,93773.59
2023-03-26T17:14:01.147Z,93786.47
2023-03-26T17:16:35.835Z,93789.84
2023-03-26T17:19:13.436Z,93794.78
2023-03-26T17:22:14.111Z,93811.91
2023-03-26T17:25:05.323Z,93812.44
2023-03-26T17:27:59.126Z,93827.69
2023-03-26T17:30:32.192Z,93830.94
2023-03-26T17:33:13.582Z,93871.84
2023-03-26T17:35:42.957Z,93872.50
2023-03-26T17:38:15.686Z,93882.50
2023-03-26T17:40:47.741Z,93878.91
2023-03-26T17:43:36.393Z,93870.31
2023-03-26T17:46:33.498Z,93877.16
2023-03-26T17:49:13.922Z,93861.38
2023-03-26T17:51:58.252Z,93869.50
2023-03-26T17:54:41.479Z,93866.72
2023-03-26T17:57:15.777Z,93856.16
2023-03-26T17:59:45.029Z,93855.66
2023-03-26T18:02:27.706Z,93860.91
2023-03-26T18:04:56.538Z,93864.28
2023-03-26T18:07:58.054Z,93864.81
2023-03-26T18:10:33.097Z,93856.78
2023-03-26T18:13:29.368Z,93870.22
2023-03-26T18:16:43.952Z,93869.69
2023-03-26T18:19:22.804Z,93866.06
2023-03-26T18:21:52.341Z,93861.75
2023-03-26T18:24:36.634Z,93857.28
2023-03-26T18:27:17.303Z,93849.75
2023-03-26T18:29:56.705Z,93859.16
2023-03-26T18:32:33.531Z,93860.97
2023-03-26T18:35:13.602Z,93852.28
2023-03-26T18:37:44.200Z,93845.66
2023-03-26T18:40:18.246Z,93842.88
2023-03-26T18:42:58.542Z,93833.19
2023-03-26T18:45:48.109Z,93831.44
2023-03-26T18:48:23.685Z,93824.97
2023-03-26T18:50:57.093Z,93830.91
2023-03-26T18:53:29.780Z,93822.19
2023-03-26T18:55:57.807Z,93816.38
2023-03-26T18:58:28.312Z,93808.88
2023-03-26T19:00:59.288Z,93825.03
2023-03-26T19:03:29.309Z,93828.13
2023-03-26T19:05:57.319Z,93828.50
2023-03-26T19:08:25.805Z,93827.78
2023-03-26T19:10:54.622Z,93844.59
2023-03-26T19:13:22.452Z,93833.66
2023-03-26T19:15:52.439Z,93834.94
2023-03-26T19:18:23.530Z,93831.25
2023-03-26T19:20:54.899Z,93820.22
2023-03-26T19:23:26.507Z,93819.09
2023-03-26T19:25:56.311Z,93826.41
2023-03-26T19:28:27.755Z,93826.06
2023-03-26T19:30:57.861Z,93828.88
2023-03-26T19:33:33.691Z,93833.72
2023-03-26T19:36:16.138Z,93832.28
2023-03-26T19:38:54.623Z,93844.25
2023-03-26T19:41:26.526Z,93847.56
2023-03-26T19:43:55.819Z,93845.13
2023-03-26T19:46:23.905Z,93839.38
2023-03-26T19:48:53.442Z,93818.94
2023-03-26T19:51:37.551Z,93826.97
2023-03-26T19:54:16.119Z,93819.50
2023-03-26T19:56:43.493Z,93822.38
2023-03-26T19:59:10.172Z,93830.88
2023-03-26T20:01:37.449Z,93834.84
2023-03-26T20:04:06.442Z,93840.41
2023-03-26T20:06:42.400Z,93830.38
2023-03-26T20:09:12.099Z,93831.28
2023-03-26T20:11:39.718Z,93828.13
2023-03-26T20:14:12.766Z,93828.44
2023-03-26T20:16:40.341Z,93828.84
2023-03-26T20:19:08.885Z,93841.41
2023-03-26T20:21:38.319Z,93832.78
2023-03-26T20:24:11.447Z,93834.84
2023-03-26T20:26:38.031Z,93835.88
2023-03-26T20:29:06.004Z,93831.16
2023-03-26T20:31:32.997Z,93832.16
2023-03-26T20:33:59.926Z,93837.03
2023-03-26T20:36:33.201Z,93835.22
2023-03-26T20:39:01.950Z,93838.28
2023-03-26T20:41:29.134Z,93843.69
2023-03-26T20:43:55.787Z,93840.88
2023-03-26T20:46:31.255Z,93834.72
2023-03-26T20:48:59.695Z,93837.84
2023-03-26T20:51:28.854Z,93835.16
2023-03-26T20:53:55.715Z,93836.81
2023-03-26T20:56:22.669Z,93837.34
2023-03-26T20:58:57.596Z,93832.44
2023-03-26T21:01:34.796Z,93841.94
2023-03-26T21:04:04.393Z,93834.28
2023-03-26T21:06:31.605Z,93835.09
2023-03-26T21:08:59.052Z,93838.06
2023-03-26T21:11:50.007Z,93831.06
2023-03-26T21:14:35.189Z,93832.81
2023-03-26T21:17:02.355Z,93840.91
2023-03-26T21:19:29.364Z,93834.56
2023-03-26T21:22:02.157Z,93828.66
2023-03-26T21:24:49.469Z,93831.78
2023-03-26T21:27:26.491Z,93815.50
2023-03-26T21:29:54.719Z,93819.88
2023-03-26T21:32:22.804Z,93819.41
2023-03-26T21:34:58.577Z,93821.41
2023-03-26T21:37:27.032Z,93812.16
2023-03-26T21:39:53.943Z,93820.88
2023-03-26T21:42:20.884Z,93815.13
2023-03-26T21:44:51.311Z,93816.16
2023-03-26T21:47:18.106Z,93818.59
2023-03-26T21:49:45.023Z,93821.31
2023-03-26T21:52:15.514Z,93810.91
2023-03-26T21:54:43.209Z,93823.53
2023-03-26T21:57:30.307Z,93822.63
2023-03-26T22:00:25.743Z,93809.06
2023-03-26T22:03:05.530Z,93817.31
2023-03-26T22:05:50.033Z,93813.94
2023-03-26T22:08:40.921Z,93819.47
2023-03-26T22:11:10.119Z,93812.41
2023-03-26T22:13:38.628Z,93814.66
2023-03-26T22:16:07.190Z,93815.03
2023-03-26T22:18:34.303Z,93822.38
2023-03-26T22:21:01.660Z,93827.47
2023-03-26T22:23:34.220Z,93831.00
2023-03-26T22:26:01.158Z,93832.38
2023-03-26T22:28:27.817Z,93832.53
2023-03-26T22:30:54.648Z,93828.22
2023-03-26T22:33:21.566Z,93831.28
2023-03-26T22:35:48.203Z,93831.78
2023-03-26T22:38:17.025Z,93833.28
2023-03-26T22:40:43.675Z,93833.94
2023-03-26T22:43:10.218Z,93835.59
2023-03-26T22:45:37.681Z,93830.53
2023-03-26T22:48:04.932Z,93835.69
2023-03-26T22:50:32.867Z,93829.88
2023-03-26T22:52:59.832Z,93829.88
2023-03-26T22:55:28.983Z,93823.66
2023-03-26T22:57:57.460Z,93823.53
2023-03-26T23:00:26.386Z,93817.22
2023-03-26T23:02:53.198Z,93813.06
2023-03-26T23:05:19.879Z,93816.09
2023-03-26T23:07:47.386Z,93815.38
2023-03-26T23:10:14.143Z,93819.16
2023-03-26T23:12:41.537Z,93805.78
2023-03-26T23:15:09.845Z,93806.13
2023-03-26T23:17:38.012Z,93805.16
2023-03-26T23:20:15.368Z,93798.78
2023-03-26T23:22:43.222Z,93802.16
2023-03-26T23:25:11.414Z,93796.00
2023-03-26T23:27:40.220Z,93797.75
2023-03-26T23:30:07.392Z,93796.69
2023-03-26T23:32:38.320Z,93795.09
2023-03-26T23:35:06.250Z,93794.19
2023-03-26T23:37:34.908Z,93790.34
2023-03-26T23:40:01.825Z,93783.81
2023-03-26T23:42:29.742Z,93787.22
2023-03-26T23:44:57.526Z,93785.44
2023-03-26T23:47:24.628Z,93791.00
2023-03-26T23:49:51.546Z,93781.34
2023-03-26T23:52:18.763Z,93787.63
2023-03-26T23:54:45.768Z,93777.13
2023-03-26T23:57:12.644Z,93781.47
2023-03-26T23:59:41.524Z,93785.38
